sensor_id;sensor_type;location;lat;lon;timestamp;pressure;altitude;pressure_sealevel;temperature;humidity
55171;BME280;41060;47.510;8.680;2024-02-26T00:02:20;95173.38;;;10.91;42.00
55171;BME280;41060;47.510;8.680;2024-02-26T00:04:46;95177.88;;;10.91;42.14
55171;BME280;41060;47.510;8.680;2024-02-26T00:07:13;95176.03;;;10.91;42.17
55171;BME280;41060;47.510;8.680;2024-02-26T00:09:40;95169.78;;;10.84;42.75
55171;BME280;41060;47.510;8.680;2024-02-26T00:12:07;95171.44;;;10.85;42.84
55171;BME280;41060;47.510;8.680;2024-02-26T00:14:34;95178.75;;;10.83;42.70
55171;BME280;41060;47.510;8.680;2024-02-26T00:17:02;95179.91;;;10.81;42.12
55171;BME280;41060;47.510;8.680;2024-02-26T00:19:30;95180.56;;;10.75;41.93
55171;BME280;41060;47.510;8.680;2024-02-26T00:21:58;95178.75;;;10.83;41.86
55171;BME280;41060;47.510;8.680;2024-02-26T00:24:25;95177.72;;;10.84;41.71
55171;BME280;41060;47.510;8.680;2024-02-26T00:26:52;95175.75;;;10.78;41.77
55171;BME280;41060;47.510;8.680;2024-02-26T00:29:20;95172.16;;;10.63;42.21
55171;BME280;41060;47.510;8.680;2024-02-26T00:31:47;95175.81;;;10.54;42.47
55171;BME280;41060;47.510;8.680;2024-02-26T00:34:14;95178.47;;;10.38;42.92
55171;BME280;41060;47.510;8.680;2024-02-26T00:36:42;95167.91;;;10.21;43.28
55171;BME280;41060;47.510;8.680;2024-02-26T00:39:09;95175.34;;;10.18;43.70
55171;BME280;41060;47.510;8.680;2024-02-26T00:41:38;95179.47;;;10.04;44.42
55171;BME280;41060;47.510;8.680;2024-02-26T00:44:05;95164.59;;;10.03;44.17
55171;BME280;41060;47.510;8.680;2024-02-26T00:46:32;95163.97;;;10.09;44.58
55171;BME280;41060;47.510;8.680;2024-02-26T00:48:59;95176.66;;;10.06;44.70
55171;BME280;41060;47.510;8.680;2024-02-26T00:51:27;95182.13;;;10.04;44.79
55171;BME280;41060;47.510;8.680;2024-02-26T00:53:55;95188.75;;;10.08;44.81
55171;BME280;41060;47.510;8.680;2024-02-26T00:56:22;95176.34;;;9.84;45.28
55171;BME280;41060;47.510;8.680;2024-02-26T00:58:48;95184.13;;;9.86;45.33
55171;BME280;41060;47.510;8.680;2024-02-26T01:01:16;95192.03;;;9.86;45.26
55171;BME280;41060;47.510;8.680;2024-02-26T01:03:42;95187.06;;;9.83;45.53
55171;BME280;41060;47.510;8.680;2024-02-26T01:06:09;95174.69;;;9.83;45.70
55171;BME280;41060;47.510;8.680;2024-02-26T01:08:36;95183.94;;;9.79;46.06
55171;BME280;41060;47.510;8.680;2024-02-26T01:11:05;95191.84;;;9.95;45.46
55171;BME280;41060;47.510;8.680;2024-02-26T01:13:32;95198.50;;;10.08;45.23
55171;BME280;41060;47.510;8.680;2024-02-26T01:16:00;95195.84;;;10.16;44.88
55171;BME280;41060;47.510;8.680;2024-02-26T01:18:27;95201.13;;;10.08;45.20
55171;BME280;41060;47.510;8.680;2024-02-26T01:20:53;95194.50;;;10.12;44.65
55171;BME280;41060;47.510;8.680;2024-02-26T01:23:21;95191.19;;;10.18;44.76
55171;BME280;41060;47.510;8.680;2024-02-26T01:25:47;95203.59;;;10.33;44.25
55171;BME280;41060;47.510;8.680;2024-02-26T01:28:16;95188.75;;;10.24;44.68
55171;BME280;41060;47.510;8.680;2024-02-26T01:30:43;95201.59;;;9.95;45.32
55171;BME280;41060;47.510;8.680;2024-02-26T01:33:09;95197.00;;;9.97;45.20
55171;BME280;41060;47.510;8.680;2024-02-26T01:35:36;95202.97;;;10.07;44.80
55171;BME280;41060;47.510;8.680;2024-02-26T01:38:04;95181.28;;;10.04;44.26
55171;BME280;41060;47.510;8.680;2024-02-26T01:40:31;95201.31;;;10.22;44.11
55171;BME280;41060;47.510;8.680;2024-02-26T01:42:59;95196.50;;;10.26;44.34
55171;BME280;41060;47.510;8.680;2024-02-26T01:45:27;95190.88;;;10.29;44.35
55171;BME280;41060;47.510;8.680;2024-02-26T01:47:54;95191.34;;;10.32;43.84
55171;BME280;41060;47.510;8.680;2024-02-26T01:50:22;95197.81;;;10.30;43.85
55171;BME280;41060;47.510;8.680;2024-02-26T01:52:50;95182.28;;;10.27;43.58
55171;BME280;41060;47.510;8.680;2024-02-26T01:55:17;95192.03;;;10.18;44.26
55171;BME280;41060;47.510;8.680;2024-02-26T01:57:45;95196.84;;;10.07;44.32
55171;BME280;41060;47.510;8.680;2024-02-26T02:00:14;95187.56;;;10.11;44.31
55171;BME280;41060;47.510;8.680;2024-02-26T02:02:43;95201.63;;;10.19;44.05
55171;BME280;41060;47.510;8.680;2024-02-26T02:05:12;95205.09;;;10.20;43.69
55171;BME280;41060;47.510;8.680;2024-02-26T02:07:41;95199.31;;;10.24;43.63
55171;BME280;41060;47.510;8.680;2024-02-26T02:10:08;95198.81;;;10.29;43.61
55171;BME280;41060;47.510;8.680;2024-02-26T02:12:35;95205.91;;;10.28;43.89
55171;BME280;41060;47.510;8.680;2024-02-26T02:15:06;95201.31;;;10.14;44.26
55171;BME280;41060;47.510;8.680;2024-02-26T02:17:34;95193.50;;;9.97;44.79
55171;BME280;41060;47.510;8.680;2024-02-26T02:20:14;95190.88;;;10.05;44.75
55171;BME280;41060;47.510;8.680;2024-02-26T02:22:43;95191.03;;;10.11;44.32
55171;BME280;41060;47.510;8.680;2024-02-26T02:25:10;95180.81;;;10.16;44.52
55171;BME280;41060;47.510;8.680;2024-02-26T02:27:36;95177.00;;;10.19;44.57
55171;BME280;41060;47.510;8.680;2024-02-26T02:30:05;95170.88;;;10.26;44.51
55171;BME280;41060;47.510;8.680;2024-02-26T02:32:33;95147.59;;;10.06;44.07
55171;BME280;41060;47.510;8.680;2024-02-26T02:34:59;95185.09;;;10.25;44.64
55171;BME280;41060;47.510;8.680;2024-02-26T02:37:27;95187.25;;;10.14;44.43
55171;BME280;41060;47.510;8.680;2024-02-26T02:39:57;95168.91;;;10.20;44.30
55171;BME280;41060;47.510;8.680;2024-02-26T02:42:24;95180.47;;;10.03;44.47
55171;BME280;41060;47.510;8.680;2024-02-26T02:44:51;95181.28;;;9.87;45.01
55171;BME280;41060;47.510;8.680;2024-02-26T02:47:18;95175.69;;;9.90;45.07
55171;BME280;41060;47.510;8.680;2024-02-26T02:49:44;95174.38;;;9.94;44.92
55171;BME280;41060;47.510;8.680;2024-02-26T02:52:14;95166.25;;;10.04;44.87
55171;BME280;41060;47.510;8.680;2024-02-26T02:54:41;95167.41;;;10.10;44.77
55171;BME280;41060;47.510;8.680;2024-02-26T02:57:09;95166.94;;;10.14;44.28
55171;BME280;41060;47.510;8.680;2024-02-26T02:59:37;95105.66;;;9.86;44.24
55171;BME280;41060;47.510;8.680;2024-02-26T03:02:04;95166.56;;;10.17;44.33
55171;BME280;41060;47.510;8.680;2024-02-26T03:04:31;95151.53;;;10.10;44.05
55171;BME280;41060;47.510;8.680;2024-02-26T03:06:59;95158.31;;;10.20;44.34
55171;BME280;41060;47.510;8.680;2024-02-26T03:09:25;95155.00;;;10.18;44.50
55171;BME280;41060;47.510;8.680;2024-02-26T03:11:52;95144.09;;;10.21;44.29
55171;BME280;41060;47.510;8.680;2024-02-26T03:14:20;95135.19;;;10.22;44.33
55171;BME280;41060;47.510;8.680;2024-02-26T03:16:47;95127.09;;;10.24;44.22
55171;BME280;41060;47.510;8.680;2024-02-26T03:19:14;95113.88;;;10.24;43.98
55171;BME280;41060;47.510;8.680;2024-02-26T03:21:42;95127.91;;;10.24;43.77
55171;BME280;41060;47.510;8.680;2024-02-26T03:24:08;95112.69;;;10.18;43.92
55171;BME280;41060;47.510;8.680;2024-02-26T03:26:37;95120.31;;;10.21;44.10
55171;BME280;41060;47.510;8.680;2024-02-26T03:29:04;95121.28;;;10.20;44.27
55171;BME280;41060;47.510;8.680;2024-02-26T03:31:32;95118.81;;;10.19;43.76
55171;BME280;41060;47.510;8.680;2024-02-26T03:33:59;95118.66;;;10.20;43.34
55171;BME280;41060;47.510;8.680;2024-02-26T03:36:26;95116.00;;;10.20;43.42
55171;BME280;41060;47.510;8.680;2024-02-26T03:38:53;95121.97;;;10.22;43.37
55171;BME280;41060;47.510;8.680;2024-02-26T03:41:22;95118.50;;;9.89;44.12
55171;BME280;41060;47.510;8.680;2024-02-26T03:43:49;95116.84;;;9.80;44.06
55171;BME280;41060;47.510;8.680;2024-02-26T03:46:16;95139.00;;;9.71;44.55
55171;BME280;41060;47.510;8.680;2024-02-26T03:48:44;95136.19;;;9.48;45.54
55171;BME280;41060;47.510;8.680;2024-02-26T03:51:11;95147.31;;;9.18;46.16
55171;BME280;41060;47.510;8.680;2024-02-26T03:53:38;95147.63;;;9.15;46.66
55171;BME280;41060;47.510;8.680;2024-02-26T03:56:05;95135.09;;;9.17;46.95
55171;BME280;41060;47.510;8.680;2024-02-26T03:58:33;95140.06;;;9.20;47.58
55171;BME280;41060;47.510;8.680;2024-02-26T04:01:00;95138.41;;;9.19;47.25
55171;BME280;41060;47.510;8.680;2024-02-26T04:03:26;95137.41;;;9.12;47.88
55171;BME280;41060;47.510;8.680;2024-02-26T04:05:55;95154.06;;;9.12;47.77
55171;BME280;41060;47.510;8.680;2024-02-26T04:08:21;95159.75;;;8.92;48.63
55171;BME280;41060;47.510;8.680;2024-02-26T04:10:48;95163.69;;;8.88;48.50
55171;BME280;41060;47.510;8.680;2024-02-26T04:13:17;95173.63;;;8.94;48.39
55171;BME280;41060;47.510;8.680;2024-02-26T04:15:44;95183.34;;;8.93;47.73
55171;BME280;41060;47.510;8.680;2024-02-26T04:18:13;95184.97;;;8.86;47.65
55171;BME280;41060;47.510;8.680;2024-02-26T04:20:41;95194.88;;;8.92;47.91
55171;BME280;41060;47.510;8.680;2024-02-26T04:23:09;95194.47;;;9.05;47.54
55171;BME280;41060;47.510;8.680;2024-02-26T04:25:35;95193.66;;;9.12;47.18
55171;BME280;41060;47.510;8.680;2024-02-26T04:28:03;95201.78;;;9.19;47.14
55171;BME280;41060;47.510;8.680;2024-02-26T04:30:30;95200.03;;;9.28;46.98
55171;BME280;41060;47.510;8.680;2024-02-26T04:32:56;95206.66;;;9.40;46.51
55171;BME280;41060;47.510;8.680;2024-02-26T04:35:23;95209.50;;;9.54;45.74
55171;BME280;41060;47.510;8.680;2024-02-26T04:37:50;95212.31;;;9.61;45.69
55171;BME280;41060;47.510;8.680;2024-02-26T04:40:18;95210.63;;;9.52;46.36
55171;BME280;41060;47.510;8.680;2024-02-26T04:42:48;95213.94;;;9.46;46.48
55171;BME280;41060;47.510;8.680;2024-02-26T04:45:15;95226.66;;;9.59;45.88
55171;BME280;41060;47.510;8.680;2024-02-26T04:47:41;95215.28;;;9.66;45.65
55171;BME280;41060;47.510;8.680;2024-02-26T04:50:11;95229.50;;;9.73;45.50
55171;BME280;41060;47.510;8.680;2024-02-26T04:52:38;95235.16;;;9.78;45.03
55171;BME280;41060;47.510;8.680;2024-02-26T04:55:05;95225.06;;;9.82;45.56
55171;BME280;41060;47.510;8.680;2024-02-26T04:57:33;95220.28;;;9.85;45.32
55171;BME280;41060;47.510;8.680;2024-02-26T05:00:00;95211.53;;;9.85;45.07
55171;BME280;41060;47.510;8.680;2024-02-26T05:02:26;95223.25;;;9.90;44.69
55171;BME280;41060;47.510;8.680;2024-02-26T05:04:56;95222.25;;;9.83;45.25
55171;BME280;41060;47.510;8.680;2024-02-26T05:07:23;95213.66;;;9.89;45.64
55171;BME280;41060;47.510;8.680;2024-02-26T05:09:49;95224.91;;;9.91;45.19
55171;BME280;41060;47.510;8.680;2024-02-26T05:12:16;95212.19;;;10.03;44.88
55171;BME280;41060;47.510;8.680;2024-02-26T05:14:44;95215.00;;;10.18;45.56
55171;BME280;41060;47.510;8.680;2024-02-26T05:17:11;95208.56;;;10.20;44.60
55171;BME280;41060;47.510;8.680;2024-02-26T05:19:38;95208.88;;;10.17;44.57
55171;BME280;41060;47.510;8.680;2024-02-26T05:22:05;95213.53;;;10.15;44.63
55171;BME280;41060;47.510;8.680;2024-02-26T05:24:33;95210.72;;;10.09;44.99
55171;BME280;41060;47.510;8.680;2024-02-26T05:27:01;95213.84;;;10.12;44.54
55171;BME280;41060;47.510;8.680;2024-02-26T05:29:27;95230.06;;;10.09;44.95
55171;BME280;41060;47.510;8.680;2024-02-26T05:31:55;95226.59;;;10.17;44.80
55171;BME280;41060;47.510;8.680;2024-02-26T05:34:22;95222.28;;;10.16;44.54
55171;BME280;41060;47.510;8.680;2024-02-26T05:36:49;95265.44;;;10.16;44.79
55171;BME280;41060;47.510;8.680;2024-02-26T05:39:15;95224.75;;;10.17;44.97
55171;BME280;41060;47.510;8.680;2024-02-26T05:41:43;95218.31;;;10.20;44.64
55171;BME280;41060;47.510;8.680;2024-02-26T05:44:11;95223.13;;;10.16;44.58
55171;BME280;41060;47.510;8.680;2024-02-26T05:46:37;95226.91;;;10.06;45.06
55171;BME280;41060;47.510;8.680;2024-02-26T05:49:06;95220.94;;;10.04;44.85
55171;BME280;41060;47.510;8.680;2024-02-26T05:51:34;95227.06;;;10.04;44.69
55171;BME280;41060;47.510;8.680;2024-02-26T05:54:01;95229.41;;;10.07;44.53
55171;BME280;41060;47.510;8.680;2024-02-26T05:56:28;95231.06;;;10.08;44.38
55171;BME280;41060;47.510;8.680;2024-02-26T05:58:55;95239.97;;;10.15;44.96
55171;BME280;41060;47.510;8.680;2024-02-26T06:01:21;95228.06;;;10.11;45.25
55171;BME280;41060;47.510;8.680;2024-02-26T06:03:50;95235.16;;;10.11;44.99
55171;BME280;41060;47.510;8.680;2024-02-26T06:06:18;95225.41;;;10.11;44.71
55171;BME280;41060;47.510;8.680;2024-02-26T06:08:44;95241.28;;;10.11;44.94
55171;BME280;41060;47.510;8.680;2024-02-26T06:11:12;95237.50;;;10.14;45.15
55171;BME280;41060;47.510;8.680;2024-02-26T06:13:38;95230.22;;;10.16;45.40
55171;BME280;41060;47.510;8.680;2024-02-26T06:16:05;95213.84;;;10.04;45.33
55171;BME280;41060;47.510;8.680;2024-02-26T06:18:33;95235.84;;;10.21;44.95
55171;BME280;41060;47.510;8.680;2024-02-26T06:21:00;95238.66;;;10.19;45.40
55171;BME280;41060;47.510;8.680;2024-02-26T06:23:28;95235.16;;;10.19;45.51
55171;BME280;41060;47.510;8.680;2024-02-26T06:25:55;95200.13;;;9.92;45.54
55171;BME280;41060;47.510;8.680;2024-02-26T06:28:24;95228.72;;;10.13;45.24
55171;BME280;41060;47.510;8.680;2024-02-26T06:30:51;95231.53;;;10.12;44.95
55171;BME280;41060;47.510;8.680;2024-02-26T06:33:18;95222.75;;;10.03;45.32
55171;BME280;41060;47.510;8.680;2024-02-26T06:35:45;95222.75;;;10.03;45.69
55171;BME280;41060;47.510;8.680;2024-02-26T06:38:11;95227.06;;;10.04;45.71
55171;BME280;41060;47.510;8.680;2024-02-26T06:40:41;95227.22;;;10.03;45.33
55171;BME280;41060;47.510;8.680;2024-02-26T06:43:07;95226.41;;;10.10;45.50
55171;BME280;41060;47.510;8.680;2024-02-26T06:45:34;95225.75;;;10.00;46.18
55171;BME280;41060;47.510;8.680;2024-02-26T06:48:01;95227.06;;;9.96;45.98
55171;BME280;41060;47.510;8.680;2024-02-26T06:50:28;95236.50;;;9.99;46.17
55171;BME280;41060;47.510;8.680;2024-02-26T06:52:55;95237.16;;;10.09;45.93
55171;BME280;41060;47.510;8.680;2024-02-26T06:55:22;95240.63;;;10.01;46.06
55171;BME280;41060;47.510;8.680;2024-02-26T06:57:50;95240.81;;;10.08;46.46
55171;BME280;41060;47.510;8.680;2024-02-26T07:00:20;95246.94;;;10.16;45.85
55171;BME280;41060;47.510;8.680;2024-02-26T07:02:47;95228.56;;;10.15;45.88
55171;BME280;41060;47.510;8.680;2024-02-26T07:05:13;95251.66;;;9.88;46.90
55171;BME280;41060;47.510;8.680;2024-02-26T07:07:40;95257.03;;;9.54;48.40
55171;BME280;41060;47.510;8.680;2024-02-26T07:10:08;95260.91;;;9.26;49.45
55171;BME280;41060;47.510;8.680;2024-02-26T07:12:37;95260.91;;;9.26;49.54
55171;BME280;41060;47.510;8.680;2024-02-26T07:15:07;95264.19;;;9.28;49.33
55171;BME280;41060;47.510;8.680;2024-02-26T07:17:34;95270.34;;;9.37;49.06
55171;BME280;41060;47.510;8.680;2024-02-26T07:20:01;95267.13;;;9.59;48.38
55171;BME280;41060;47.510;8.680;2024-02-26T07:22:29;95266.16;;;9.68;48.38
55171;BME280;41060;47.510;8.680;2024-02-26T07:24:56;95270.75;;;9.58;48.34
55171;BME280;41060;47.510;8.680;2024-02-26T07:27:23;95269.72;;;9.51;48.43
55171;BME280;41060;47.510;8.680;2024-02-26T07:29:50;95265.66;;;9.57;48.05
55171;BME280;41060;47.510;8.680;2024-02-26T07:32:18;95259.25;;;9.75;47.38
55171;BME280;41060;47.510;8.680;2024-02-26T07:34:45;95266.53;;;9.89;47.46
55171;BME280;41060;47.510;8.680;2024-02-26T07:37:11;95263.69;;;9.75;47.66
55171;BME280;41060;47.510;8.680;2024-02-26T07:39:39;95269.44;;;9.62;48.65
55171;BME280;41060;47.510;8.680;2024-02-26T07:42:05;95276.91;;;9.75;47.77
55171;BME280;41060;47.510;8.680;2024-02-26T07:44:32;95273.63;;;9.89;47.19
55171;BME280;41060;47.510;8.680;2024-02-26T07:47:00;95268.06;;;10.00;47.63
55171;BME280;41060;47.510;8.680;2024-02-26T07:49:28;95269.34;;;9.96;47.50
55171;BME280;41060;47.510;8.680;2024-02-26T07:51:54;95269.03;;;9.91;47.78
55171;BME280;41060;47.510;8.680;2024-02-26T07:54:23;95270.88;;;10.07;46.88
55171;BME280;41060;47.510;8.680;2024-02-26T07:56:50;95262.97;;;10.23;47.00
55171;BME280;41060;47.510;8.680;2024-02-26T07:59:17;95260.81;;;10.43;46.64
55171;BME280;41060;47.510;8.680;2024-02-26T08:01:49;95265.41;;;10.57;46.33
55171;BME280;41060;47.510;8.680;2024-02-26T08:04:16;95259.00;;;10.43;46.60
55171;BME280;41060;47.510;8.680;2024-02-26T08:06:44;95261.47;;;10.37;46.44
55171;BME280;41060;47.510;8.680;2024-02-26T08:09:13;95258.13;;;10.10;47.23
55171;BME280;41060;47.510;8.680;2024-02-26T08:11:39;95256.00;;;10.06;47.67
55171;BME280;41060;47.510;8.680;2024-02-26T08:14:06;95261.94;;;9.91;47.71
55171;BME280;41060;47.510;8.680;2024-02-26T08:16:33;95268.91;;;10.17;47.46
55171;BME280;41060;47.510;8.680;2024-02-26T08:19:00;95259.00;;;10.43;46.91
55171;BME280;41060;47.510;8.680;2024-02-26T08:21:29;95273.88;;;10.60;46.55
55171;BME280;41060;47.510;8.680;2024-02-26T08:24:00;95269.06;;;10.72;46.29
55171;BME280;41060;47.510;8.680;2024-02-26T08:26:27;95274.53;;;10.46;46.83
55171;BME280;41060;47.510;8.680;2024-02-26T08:28:53;95243.25;;;10.17;47.29
55171;BME280;41060;47.510;8.680;2024-02-26T08:31:21;95276.34;;;10.13;47.50
55171;BME280;41060;47.510;8.680;2024-02-26T08:33:48;95274.34;;;10.07;47.70
55171;BME280;41060;47.510;8.680;2024-02-26T08:36:15;95274.34;;;10.48;47.41
55171;BME280;41060;47.510;8.680;2024-02-26T08:38:42;95258.81;;;10.53;46.82
55171;BME280;41060;47.510;8.680;2024-02-26T08:41:10;95274.19;;;10.57;46.94
55171;BME280;41060;47.510;8.680;2024-02-26T08:43:38;95271.25;;;10.68;47.10
55171;BME280;41060;47.510;8.680;2024-02-26T08:46:08;95266.75;;;10.69;47.01
55171;BME280;41060;47.510;8.680;2024-02-26T08:48:35;95268.75;;;10.83;46.85
55171;BME280;41060;47.510;8.680;2024-02-26T08:51:05;95269.53;;;10.92;46.40
55171;BME280;41060;47.510;8.680;2024-02-26T08:53:32;95272.00;;;11.01;46.38
55171;BME280;41060;47.510;8.680;2024-02-26T08:55:59;95277.06;;;11.27;46.08
55171;BME280;41060;47.510;8.680;2024-02-26T08:58:27;95291.91;;;11.44;45.79
55171;BME280;41060;47.510;8.680;2024-02-26T09:00:55;95294.31;;;11.62;44.87
55171;BME280;41060;47.510;8.680;2024-02-26T09:03:21;95292.94;;;11.74;44.39
55171;BME280;41060;47.510;8.680;2024-02-26T09:05:48;95303.06;;;11.71;42.52
55171;BME280;41060;47.510;8.680;2024-02-26T09:08:16;95310.00;;;11.80;42.81
55171;BME280;41060;47.510;8.680;2024-02-26T09:10:42;95299.78;;;11.61;43.10
55171;BME280;41060;47.510;8.680;2024-02-26T09:13:09;95297.41;;;11.43;43.18
55171;BME280;41060;47.510;8.680;2024-02-26T09:15:40;95276.09;;;11.20;43.04
55171;BME280;41060;47.510;8.680;2024-02-26T09:18:07;95296.50;;;11.50;42.96
55171;BME280;41060;47.510;8.680;2024-02-26T09:20:33;95292.91;;;11.43;42.37
55171;BME280;41060;47.510;8.680;2024-02-26T09:23:04;95296.81;;;11.64;42.75
55171;BME280;41060;47.510;8.680;2024-02-26T09:25:30;95288.31;;;12.07;46.06
55171;BME280;41060;47.510;8.680;2024-02-26T09:27:58;95277.94;;;12.43;42.98
55171;BME280;41060;47.510;8.680;2024-02-26T09:30:25;95253.59;;;12.40;44.06
55171;BME280;41060;47.510;8.680;2024-02-26T09:32:53;95281.25;;;12.68;42.39
55171;BME280;41060;47.510;8.680;2024-02-26T09:35:20;95272.44;;;12.68;41.30
55171;BME280;41060;47.510;8.680;2024-02-26T09:37:48;95274.00;;;12.77;41.35
55171;BME280;41060;47.510;8.680;2024-02-26T09:40:15;95277.88;;;12.74;41.24
55171;BME280;41060;47.510;8.680;2024-02-26T09:42:43;95282.44;;;12.80;42.05
55171;BME280;41060;47.510;8.680;2024-02-26T09:45:17;95272.44;;;12.68;42.42
55171;BME280;41060;47.510;8.680;2024-02-26T09:47:44;95273.44;;;12.67;42.84
55171;BME280;41060;47.510;8.680;2024-02-26T09:50:14;95275.50;;;12.56;43.36
55171;BME280;41060;47.510;8.680;2024-02-26T09:52:46;95268.09;;;12.52;43.12
55171;BME280;41060;47.510;8.680;2024-02-26T09:55:13;95272.13;;;12.62;41.77
55171;BME280;41060;47.510;8.680;2024-02-26T09:57:44;95272.69;;;12.58;41.53
55171;BME280;41060;47.510;8.680;2024-02-26T10:00:17;95268.66;;;12.24;41.61
55171;BME280;41060;47.510;8.680;2024-02-26T10:02:45;95257.25;;;11.93;41.94
55171;BME280;41060;47.510;8.680;2024-02-26T10:05:16;95288.56;;;11.90;42.07
55171;BME280;41060;47.510;8.680;2024-02-26T10:07:45;95303.16;;;11.85;42.33
55171;BME280;41060;47.510;8.680;2024-02-26T10:10:12;95300.41;;;11.71;42.23
55171;BME280;41060;47.510;8.680;2024-02-26T10:12:41;95301.50;;;11.84;42.45
55171;BME280;41060;47.510;8.680;2024-02-26T10:15:09;95303.03;;;11.79;42.61
55171;BME280;41060;47.510;8.680;2024-02-26T10:17:36;95301.28;;;12.02;42.14
55171;BME280;41060;47.510;8.680;2024-02-26T10:20:18;95304.13;;;12.01;42.07
55171;BME280;41060;47.510;8.680;2024-02-26T10:22:47;95304.63;;;11.96;42.98
55171;BME280;41060;47.510;8.680;2024-02-26T10:25:14;95306.34;;;11.73;42.63
55171;BME280;41060;47.510;8.680;2024-02-26T10:27:41;95305.00;;;11.85;42.75
55171;BME280;41060;47.510;8.680;2024-02-26T10:30:18;95303.53;;;12.13;42.14
55171;BME280;41060;47.510;8.680;2024-02-26T10:32:47;95302.59;;;12.06;40.65
55171;BME280;41060;47.510;8.680;2024-02-26T10:35:14;95281.47;;;11.82;40.27
55171;BME280;41060;47.510;8.680;2024-02-26T10:37:42;95301.47;;;12.01;40.21
55171;BME280;41060;47.510;8.680;2024-02-26T10:40:10;95298.56;;;12.10;40.24
55171;BME280;41060;47.510;8.680;2024-02-26T10:42:37;95305.66;;;12.18;40.12
55171;BME280;41060;47.510;8.680;2024-02-26T10:45:07;95313.56;;;12.26;39.91
55171;BME280;41060;47.510;8.680;2024-02-26T10:47:37;95279.78;;;12.20;39.84
55171;BME280;41060;47.510;8.680;2024-02-26T10:50:06;95317.28;;;12.40;39.84
55171;BME280;41060;47.510;8.680;2024-02-26T10:52:34;95322.47;;;12.33;40.01
55171;BME280;41060;47.510;8.680;2024-02-26T10:55:04;95316.75;;;12.44;39.98
55171;BME280;41060;47.510;8.680;2024-02-26T10:57:34;95325.84;;;12.50;39.06
55171;BME280;41060;47.510;8.680;2024-02-26T11:00:04;95314.06;;;12.52;39.90
55171;BME280;41060;47.510;8.680;2024-02-26T11:02:32;95334.16;;;12.47;40.01
55171;BME280;41060;47.510;8.680;2024-02-26T11:05:02;95329.22;;;12.44;39.04
55171;BME280;41060;47.510;8.680;2024-02-26T11:07:29;95310.56;;;12.52;38.89
55171;BME280;41060;47.510;8.680;2024-02-26T11:09:57;95332.75;;;12.59;39.63
55171;BME280;41060;47.510;8.680;2024-02-26T11:12:29;95330.03;;;12.67;39.59
55171;BME280;41060;47.510;8.680;2024-02-26T11:14:56;95324.19;;;12.49;39.39
55171;BME280;41060;47.510;8.680;2024-02-26T11:17:27;95322.72;;;12.46;39.11
55171;BME280;41060;47.510;8.680;2024-02-26T11:19:58;95330.22;;;12.43;39.41
55171;BME280;41060;47.510;8.680;2024-02-26T11:22:25;95293.16;;;12.26;39.42
55171;BME280;41060;47.510;8.680;2024-02-26T11:24:53;95326.44;;;12.60;39.44
55171;BME280;41060;47.510;8.680;2024-02-26T11:27:26;95319.31;;;12.38;40.46
55171;BME280;41060;47.510;8.680;2024-02-26T11:29:57;95319.75;;;12.41;40.89
55171;BME280;41060;47.510;8.680;2024-02-26T11:32:27;95302.88;;;12.34;40.86
55171;BME280;41060;47.510;8.680;2024-02-26T11:34:55;95315.28;;;12.42;39.93
55171;BME280;41060;47.510;8.680;2024-02-26T11:37:23;95324.31;;;12.55;39.76
55171;BME280;41060;47.510;8.680;2024-02-26T11:39:51;95329.59;;;12.55;39.99
55171;BME280;41060;47.510;8.680;2024-02-26T11:42:23;95317.69;;;12.29;39.29
55171;BME280;41060;47.510;8.680;2024-02-26T11:44:50;95319.13;;;12.39;40.05
55171;BME280;41060;47.510;8.680;2024-02-26T11:47:22;95317.28;;;12.62;40.05
55171;BME280;41060;47.510;8.680;2024-02-26T11:49:49;95320.75;;;12.63;39.88
55171;BME280;41060;47.510;8.680;2024-02-26T11:52:16;95324.69;;;12.52;38.97
55171;BME280;41060;47.510;8.680;2024-02-26T11:54:47;95325.00;;;12.72;38.97
55171;BME280;41060;47.510;8.680;2024-02-26T11:57:21;95329.91;;;12.60;39.04
55171;BME280;41060;47.510;8.680;2024-02-26T11:59:49;95325.28;;;12.77;39.10
55171;BME280;41060;47.510;8.680;2024-02-26T12:02:39;95324.78;;;12.82;37.62
55171;BME280;41060;47.510;8.680;2024-02-26T12:05:10;95325.34;;;12.69;38.66
55171;BME280;41060;47.510;8.680;2024-02-26T12:07:40;95325.19;;;12.71;38.81
55171;BME280;41060;47.510;8.680;2024-02-26T12:10:24;95320.28;;;12.82;38.46
55171;BME280;41060;47.510;8.680;2024-02-26T12:13:05;95322.88;;;12.90;38.10
55171;BME280;41060;47.510;8.680;2024-02-26T12:15:35;95324.75;;;13.05;38.36
55171;BME280;41060;47.510;8.680;2024-02-26T12:18:05;95316.34;;;13.30;38.03
55171;BME280;41060;47.510;8.680;2024-02-26T12:20:33;95319.41;;;13.42;37.23
55171;BME280;41060;47.510;8.680;2024-02-26T12:23:01;95313.09;;;13.43;37.34
55171;BME280;41060;47.510;8.680;2024-02-26T12:25:29;95312.13;;;13.51;37.03
55171;BME280;41060;47.510;8.680;2024-02-26T12:27:57;95312.88;;;13.45;37.31
55171;BME280;41060;47.510;8.680;2024-02-26T12:30:24;95316.66;;;13.65;37.05
55171;BME280;41060;47.510;8.680;2024-02-26T12:32:53;95314.19;;;13.49;37.68
55171;BME280;41060;47.510;8.680;2024-02-26T12:35:26;95303.53;;;13.49;36.94
55171;BME280;41060;47.510;8.680;2024-02-26T12:37:53;95306.72;;;13.73;37.02
55171;BME280;41060;47.510;8.680;2024-02-26T12:40:20;95304.72;;;13.75;37.53
55171;BME280;41060;47.510;8.680;2024-02-26T12:42:48;95274.22;;;13.57;36.54
55171;BME280;41060;47.510;8.680;2024-02-26T12:45:15;95314.72;;;13.59;37.37
55171;BME280;41060;47.510;8.680;2024-02-26T12:47:42;95310.59;;;13.41;37.39
55171;BME280;41060;47.510;8.680;2024-02-26T12:50:11;95304.16;;;13.36;36.75
55171;BME280;41060;47.510;8.680;2024-02-26T12:52:42;95294.34;;;13.22;37.66
55171;BME280;41060;47.510;8.680;2024-02-26T12:55:11;95316.00;;;13.63;36.02
55171;BME280;41060;47.510;8.680;2024-02-26T12:57:41;95302.69;;;13.77;35.43
55171;BME280;41060;47.510;8.680;2024-02-26T13:00:12;95307.88;;;14.00;34.98
55171;BME280;41060;47.510;8.680;2024-02-26T13:02:41;95303.00;;;14.18;34.51
55171;BME280;41060;47.510;8.680;2024-02-26T13:05:08;95309.44;;;14.24;34.58
55171;BME280;41060;47.510;8.680;2024-02-26T13:07:45;95270.22;;;13.82;33.36